sensor_id;sensor_type;location;lat;lon;timestamp;pressure;altitude;pressure_sealevel;temperature;humidity
36630;BME280;36256;42.154;23.002;2023-05-02T00:00:49;97525.91;;;11.11;100.00
36630;BME280;36256;42.154;23.002;2023-05-02T00:03:16;97523.13;;;11.11;100.00
36630;BME280;36256;42.154;23.002;2023-05-02T00:05:43;97528.47;;;11.18;100.00
36630;BME280;36256;42.154;23.002;2023-05-02T00:08:10;97523.44;;;11.13;100.00
36630;BME280;36256;42.154;23.002;2023-05-02T00:10:37;97525.66;;;11.18;100.00
36630;BME280;36256;42.154;23.002;2023-05-02T00:13:05;97534.00;;;11.21;100.00
36630;BME280;36256;42.154;23.002;2023-05-02T00:15:31;97526.78;;;11.20;99.44
36630;BME280;36256;42.154;23.002;2023-05-02T00:17:58;97525.34;;;11.16;100.00
36630;BME280;36256;42.154;23.002;2023-05-02T00:20:25;97528.41;;;11.09;100.00
36630;BME280;36256;42.154;23.002;2023-05-02T00:22:52;97529.63;;;11.07;100.00
36630;BME280;36256;42.154;23.002;2023-05-02T00:25:20;97531.13;;;10.87;100.00
36630;BME280;36256;42.154;23.002;2023-05-02T00:27:47;97531.22;;;10.83;100.00
36630;BME280;36256;42.154;23.002;2023-05-02T00:30:16;97533.69;;;10.81;100.00
36630;BME280;36256;42.154;23.002;2023-05-02T00:32:43;97537.06;;;10.76;100.00
36630;BME280;36256;42.154;23.002;2023-05-02T00:35:10;97538.63;;;10.77;100.00
36630;BME280;36256;42.154;23.002;2023-05-02T00:37:37;97550.31;;;10.76;100.00
36630;BME280;36256;42.154;23.002;2023-05-02T00:40:05;97543.22;;;10.71;100.00
36630;BME280;36256;42.154;23.002;2023-05-02T00:42:33;97548.28;;;10.76;100.00
36630;BME280;36256;42.154;23.002;2023-05-02T00:45:03;97551.44;;;10.78;100.00
36630;BME280;36256;42.154;23.002;2023-05-02T00:47:32;97522.91;;;10.67;100.00
36630;BME280;36256;42.154;23.002;2023-05-02T00:50:00;97556.13;;;10.81;100.00
36630;BME280;36256;42.154;23.002;2023-05-02T00:52:27;97551.44;;;10.78;100.00
36630;BME280;36256;42.154;23.002;2023-05-02T00:54:54;97540.09;;;10.82;100.00
36630;BME280;36256;42.154;23.002;2023-05-02T00:57:22;97540.66;;;10.77;100.00
36630;BME280;36256;42.154;23.002;2023-05-02T00:59:49;97536.41;;;10.72;100.00
36630;BME280;36256;42.154;23.002;2023-05-02T01:05:14;97535.41;;;10.66;100.00
36630;BME280;36256;42.154;23.002;2023-05-02T01:10:35;97538.28;;;10.50;100.00
36630;BME280;36256;42.154;23.002;2023-05-02T01:15:31;97542.88;;;10.44;100.00
36630;BME280;36256;42.154;23.002;2023-05-02T01:18:00;97532.78;;;10.34;100.00
36630;BME280;36256;42.154;23.002;2023-05-02T01:20:29;97537.72;;;10.30;100.00
36630;BME280;36256;42.154;23.002;2023-05-02T01:23:02;97537.91;;;10.23;100.00
36630;BME280;36256;42.154;23.002;2023-05-02T01:30:40;97545.72;;;10.03;100.00
36630;BME280;36256;42.154;23.002;2023-05-02T01:33:11;97546.69;;;9.96;100.00
36630;BME280;36256;42.154;23.002;2023-05-02T01:35:41;97551.50;;;9.96;100.00
36630;BME280;36256;42.154;23.002;2023-05-02T01:38:13;97548.56;;;9.87;100.00
36630;BME280;36256;42.154;23.002;2023-05-02T01:40:44;97552.84;;;9.91;100.00
36630;BME280;36256;42.154;23.002;2023-05-02T01:43:15;97554.41;;;9.92;100.00
36630;BME280;36256;42.154;23.002;2023-05-02T01:45:44;97548.56;;;9.87;100.00
36630;BME280;36256;42.154;23.002;2023-05-02T01:48:13;97549.88;;;9.82;100.00
36630;BME280;36256;42.154;23.002;2023-05-02T01:50:43;97554.28;;;9.83;100.00
36630;BME280;36256;42.154;23.002;2023-05-02T01:53:11;97545.63;;;9.78;100.00
36630;BME280;36256;42.154;23.002;2023-05-02T01:55:42;97569.53;;;9.95;100.00
36630;BME280;36256;42.154;23.002;2023-05-02T01:58:10;97564.09;;;9.75;100.00
36630;BME280;36256;42.154;23.002;2023-05-02T02:00:38;97564.88;;;9.76;100.00
36630;BME280;36256;42.154;23.002;2023-05-02T02:03:06;97556.69;;;9.69;100.00
36630;BME280;36256;42.154;23.002;2023-05-02T02:05:35;97562.81;;;9.64;100.00
36630;BME280;36256;42.154;23.002;2023-05-02T02:08:03;97562.13;;;9.60;100.00
36630;BME280;36256;42.154;23.002;2023-05-02T02:10:35;97557.41;;;9.57;100.00
36630;BME280;36256;42.154;23.002;2023-05-02T02:13:14;97556.53;;;9.60;100.00
36630;BME280;36256;42.154;23.002;2023-05-02T02:15:46;97554.25;;;9.55;100.00
36630;BME280;36256;42.154;23.002;2023-05-02T02:18:20;97551.88;;;9.53;100.00
36630;BME280;36256;42.154;23.002;2023-05-02T02:20:49;97558.28;;;9.54;100.00
36630;BME280;36256;42.154;23.002;2023-05-02T02:23:18;97543.41;;;9.57;100.00
36630;BME280;36256;42.154;23.002;2023-05-02T02:25:48;97550.13;;;9.59;100.00
36630;BME280;36256;42.154;23.002;2023-05-02T02:28:16;97548.47;;;9.62;100.00
36630;BME280;36256;42.154;23.002;2023-05-02T02:30:42;97552.16;;;9.59;100.00
36630;BME280;36256;42.154;23.002;2023-05-02T02:33:09;97560.06;;;9.47;100.00
36630;BME280;36256;42.154;23.002;2023-05-02T02:35:46;97550.63;;;9.41;100.00
36630;BME280;36256;42.154;23.002;2023-05-02T02:38:22;97551.88;;;9.24;100.00
36630;BME280;36256;42.154;23.002;2023-05-02T02:40:56;97550.81;;;9.18;100.00
36630;BME280;36256;42.154;23.002;2023-05-02T02:48:51;97555.06;;;9.23;100.00
36630;BME280;36256;42.154;23.002;2023-05-02T02:51:31;97555.00;;;9.26;100.00
36630;BME280;36256;42.154;23.002;2023-05-02T02:57:00;97555.47;;;9.25;100.00
36630;BME280;36256;42.154;23.002;2023-05-02T02:59:32;97553.50;;;9.38;100.00
36630;BME280;36256;42.154;23.002;2023-05-02T03:02:07;97550.97;;;9.43;100.00
36630;BME280;36256;42.154;23.002;2023-05-02T03:04:37;97554.63;;;9.40;100.00
36630;BME280;36256;42.154;23.002;2023-05-02T03:07:04;97560.22;;;9.40;100.00
36630;BME280;36256;42.154;23.002;2023-05-02T03:09:43;97561.81;;;9.41;100.00
36630;BME280;36256;42.154;23.002;2023-05-02T03:12:10;97568.22;;;9.26;100.00
36630;BME280;36256;42.154;23.002;2023-05-02T03:14:38;97563.06;;;9.24;100.00
36630;BME280;36256;42.154;23.002;2023-05-02T03:17:05;97564.28;;;9.23;100.00
36630;BME280;36256;42.154;23.002;2023-05-02T03:19:33;97565.41;;;9.26;100.00
36630;BME280;36256;42.154;23.002;2023-05-02T03:22:00;97564.13;;;9.14;100.00
36630;BME280;36256;42.154;23.002;2023-05-02T03:24:27;97580.91;;;9.14;100.00
36630;BME280;36256;42.154;23.002;2023-05-02T03:26:57;97581.78;;;9.11;100.00
36630;BME280;36256;42.154;23.002;2023-05-02T03:29:25;97566.03;;;9.01;100.00
36630;BME280;36256;42.154;23.002;2023-05-02T03:31:52;97573.19;;;9.02;100.00
36630;BME280;36256;42.154;23.002;2023-05-02T03:34:19;97570.75;;;9.04;100.00
36630;BME280;36256;42.154;23.002;2023-05-02T03:36:47;97580.38;;;9.03;100.00
36630;BME280;36256;42.154;23.002;2023-05-02T03:39:14;97566.91;;;8.98;100.00
36630;BME280;36256;42.154;23.002;2023-05-02T03:41:41;97574.59;;;9.10;100.00
36630;BME280;36256;42.154;23.002;2023-05-02T03:44:09;97574.59;;;8.94;100.00
36630;BME280;36256;42.154;23.002;2023-05-02T03:46:36;97581.25;;;9.00;100.00
36630;BME280;36256;42.154;23.002;2023-05-02T03:49:03;97596.28;;;9.06;100.00
36630;BME280;36256;42.154;23.002;2023-05-02T03:51:29;97582.84;;;9.01;100.00
36630;BME280;36256;42.154;23.002;2023-05-02T03:53:56;97597.34;;;9.12;100.00
36630;BME280;36256;42.154;23.002;2023-05-02T03:56:23;97589.66;;;9.16;100.00
36630;BME280;36256;42.154;23.002;2023-05-02T03:58:50;97590.00;;;9.18;100.00
36630;BME280;36256;42.154;23.002;2023-05-02T04:01:17;97590.38;;;9.20;100.00
36630;BME280;36256;42.154;23.002;2023-05-02T04:03:43;97599.13;;;9.22;100.00
36630;BME280;36256;42.154;23.002;2023-05-02T04:06:10;97593.50;;;9.22;100.00
36630;BME280;36256;42.154;23.002;2023-05-02T04:08:38;97597.34;;;9.28;100.00
36630;BME280;36256;42.154;23.002;2023-05-02T04:11:05;97604.53;;;9.29;100.00
36630;BME280;36256;42.154;23.002;2023-05-02T04:13:32;97603.66;;;9.32;100.00
36630;BME280;36256;42.154;23.002;2023-05-02T04:15:59;97601.19;;;9.34;100.00
36630;BME280;36256;42.154;23.002;2023-05-02T04:18:25;97599.63;;;9.33;100.00
36630;BME280;36256;42.154;23.002;2023-05-02T04:20:52;97598.56;;;9.27;100.00
36630;BME280;36256;42.154;23.002;2023-05-02T04:23:19;97608.41;;;9.35;100.00
36630;BME280;36256;42.154;23.002;2023-05-02T04:25:54;97605.94;;;9.37;100.00
36630;BME280;36256;42.154;23.002;2023-05-02T04:28:22;97605.72;;;9.44;100.00
36630;BME280;36256;42.154;23.002;2023-05-02T04:30:49;97616.06;;;9.47;100.00
36630;BME280;36256;42.154;23.002;2023-05-02T04:33:16;97611.06;;;9.55;100.00
36630;BME280;36256;42.154;23.002;2023-05-02T04:35:44;97598.09;;;9.61;100.00
36630;BME280;36256;42.154;23.002;2023-05-02T04:38:10;97612.72;;;9.69;100.00
36630;BME280;36256;42.154;23.002;2023-05-02T04:40:37;97615.31;;;9.76;100.00
36630;BME280;36256;42.154;23.002;2023-05-02T04:43:04;97614.56;;;9.75;100.00
36630;BME280;36256;42.154;23.002;2023-05-02T04:45:31;97617.59;;;9.81;100.00
36630;BME280;36256;42.154;23.002;2023-05-02T04:47:58;97618.22;;;9.88;100.00
36630;BME280;36256;42.154;23.002;2023-05-02T04:50:24;97613.88;;;10.00;100.00
36630;BME280;36256;42.154;23.002;2023-05-02T04:52:53;97618.94;;;10.05;100.00
36630;BME280;36256;42.154;23.002;2023-05-02T04:55:20;97612.09;;;10.06;100.00
36630;BME280;36256;42.154;23.002;2023-05-02T04:57:47;97613.59;;;10.10;100.00
36630;BME280;36256;42.154;23.002;2023-05-02T05:00:13;97617.53;;;10.13;100.00
36630;BME280;36256;42.154;23.002;2023-05-02T05:02:40;97609.63;;;10.24;100.00
36630;BME280;36256;42.154;23.002;2023-05-02T05:05:08;97610.63;;;10.30;100.00
36630;BME280;36256;42.154;23.002;2023-05-02T05:07:35;97599.53;;;10.39;100.00
36630;BME280;36256;42.154;23.002;2023-05-02T05:10:02;97607.94;;;10.39;100.00
36630;BME280;36256;42.154;23.002;2023-05-02T05:12:29;97613.47;;;10.43;100.00
36630;BME280;36256;42.154;23.002;2023-05-02T05:14:55;97611.69;;;10.49;100.00
36630;BME280;36256;42.154;23.002;2023-05-02T05:17:22;97613.16;;;10.53;100.00
36630;BME280;36256;42.154;23.002;2023-05-02T05:19:49;97615.19;;;10.65;100.00
36630;BME280;36256;42.154;23.002;2023-05-02T05:22:16;97607.78;;;10.71;100.00
36630;BME280;36256;42.154;23.002;2023-05-02T05:24:50;97611.41;;;10.84;100.00
36630;BME280;36256;42.154;23.002;2023-05-02T05:27:17;97603.88;;;10.94;100.00
36630;BME280;36256;42.154;23.002;2023-05-02T05:29:43;97611.63;;;11.02;100.00
36630;BME280;36256;42.154;23.002;2023-05-02T05:32:10;97628.03;;;11.04;100.00
36630;BME280;36256;42.154;23.002;2023-05-02T05:34:37;97618.59;;;11.11;100.00
36630;BME280;36256;42.154;23.002;2023-05-02T05:37:04;97614.06;;;11.26;100.00
36630;BME280;36256;42.154;23.002;2023-05-02T05:39:31;97614.63;;;11.46;100.00
36630;BME280;36256;42.154;23.002;2023-05-02T05:41:58;97617.03;;;11.81;100.00
36630;BME280;36256;42.154;23.002;2023-05-02T05:44:26;97611.88;;;12.14;100.00
36630;BME280;36256;42.154;23.002;2023-05-02T05:46:52;97596.47;;;12.49;99.59
36630;BME280;36256;42.154;23.002;2023-05-02T05:49:19;97618.09;;;13.05;95.07
36630;BME280;36256;42.154;23.002;2023-05-02T05:51:47;97611.22;;;13.73;91.38
36630;BME280;36256;42.154;23.002;2023-05-02T05:54:15;97603.16;;;14.29;86.20
36630;BME280;36256;42.154;23.002;2023-05-02T05:56:42;97611.63;;;14.98;83.72
36630;BME280;36256;42.154;23.002;2023-05-02T05:59:09;97603.56;;;15.80;79.55
36630;BME280;36256;42.154;23.002;2023-05-02T06:01:36;97601.56;;;16.57;74.33
36630;BME280;36256;42.154;23.002;2023-05-02T06:04:03;97600.59;;;16.75;71.81
36630;BME280;36256;42.154;23.002;2023-05-02T06:06:30;97590.84;;;17.40;69.90
36630;BME280;36256;42.154;23.002;2023-05-02T06:08:57;97593.66;;;18.09;67.26
36630;BME280;36256;42.154;23.002;2023-05-02T06:11:24;97596.44;;;18.69;64.92
36630;BME280;36256;42.154;23.002;2023-05-02T06:13:51;97589.88;;;18.84;61.63
36630;BME280;36256;42.154;23.002;2023-05-02T06:16:18;97591.28;;;18.99;61.00
36630;BME280;36256;42.154;23.002;2023-05-02T06:18:45;97593.81;;;19.23;60.71
36630;BME280;36256;42.154;23.002;2023-05-02T06:21:12;97582.31;;;19.06;60.21
36630;BME280;36256;42.154;23.002;2023-05-02T06:23:39;97588.13;;;19.54;60.85
36630;BME280;36256;42.154;23.002;2023-05-02T06:26:06;97578.22;;;19.81;58.21
36630;BME280;36256;42.154;23.002;2023-05-02T06:28:33;97582.31;;;20.22;58.13
36630;BME280;36256;42.154;23.002;2023-05-02T06:31:04;97580.66;;;20.04;59.30
36630;BME280;36256;42.154;23.002;2023-05-02T06:33:32;97569.56;;;19.27;58.19
36630;BME280;36256;42.154;23.002;2023-05-02T06:35:58;97569.56;;;19.64;57.38
36630;BME280;36256;42.154;23.002;2023-05-02T06:38:27;97583.00;;;20.06;56.13
36630;BME280;36256;42.154;23.002;2023-05-02T06:40:54;97584.47;;;19.90;56.39
36630;BME280;36256;42.154;23.002;2023-05-02T06:43:21;97569.84;;;19.66;56.96
36630;BME280;36256;42.154;23.002;2023-05-02T06:45:52;97573.00;;;19.74;58.68
36630;BME280;36256;42.154;23.002;2023-05-02T06:48:20;97589.19;;;20.04;59.19
36630;BME280;36256;42.154;23.002;2023-05-02T06:50:48;97593.34;;;20.03;57.47
36630;BME280;36256;42.154;23.002;2023-05-02T06:53:14;97587.47;;;19.70;58.13
36630;BME280;36256;42.154;23.002;2023-05-02T06:55:42;97588.81;;;19.43;56.17
36630;BME280;36256;42.154;23.002;2023-05-02T06:58:09;97570.84;;;19.63;56.71
36630;BME280;36256;42.154;23.002;2023-05-02T07:00:36;97585.69;;;19.78;55.12
36630;BME280;36256;42.154;23.002;2023-05-02T07:03:03;97586.47;;;20.21;55.06
36630;BME280;36256;42.154;23.002;2023-05-02T07:05:30;97583.38;;;20.24;52.56
36630;BME280;36256;42.154;23.002;2023-05-02T07:07:56;97565.84;;;20.54;50.16
36630;BME280;36256;42.154;23.002;2023-05-02T07:10:24;97570.72;;;20.37;52.14
36630;BME280;36256;42.154;23.002;2023-05-02T07:12:50;97575.44;;;20.62;50.71
36630;BME280;36256;42.154;23.002;2023-05-02T07:15:17;97574.47;;;20.92;48.68
36630;BME280;36256;42.154;23.002;2023-05-02T07:17:43;97568.75;;;20.98;49.66
36630;BME280;36256;42.154;23.002;2023-05-02T07:20:13;97558.91;;;20.88;48.40
36630;BME280;36256;42.154;23.002;2023-05-02T07:22:41;97567.66;;;20.68;49.61
36630;BME280;36256;42.154;23.002;2023-05-02T07:25:08;97578.31;;;20.67;50.05
36630;BME280;36256;42.154;23.002;2023-05-02T07:27:35;97576.84;;;21.05;51.65
36630;BME280;36256;42.154;23.002;2023-05-02T07:30:02;97576.56;;;21.03;48.28
36630;BME280;36256;42.154;23.002;2023-05-02T07:32:29;97567.22;;;21.08;49.91
36630;BME280;36256;42.154;23.002;2023-05-02T07:34:56;97572.13;;;20.85;50.87
36630;BME280;36256;42.154;23.002;2023-05-02T07:37:23;97550.63;;;21.01;49.18
36630;BME280;36256;42.154;23.002;2023-05-02T07:39:50;97564.09;;;20.95;48.30
36630;BME280;36256;42.154;23.002;2023-05-02T07:42:17;97569.72;;;20.62;49.85
36630;BME280;36256;42.154;23.002;2023-05-02T07:44:43;97567.44;;;20.93;48.87
36630;BME280;36256;42.154;23.002;2023-05-02T07:47:10;97558.94;;;21.21;49.82
36630;BME280;36256;42.154;23.002;2023-05-02T07:49:36;97566.66;;;20.93;49.04
36630;BME280;36256;42.154;23.002;2023-05-02T07:52:03;97551.09;;;20.83;49.47
36630;BME280;36256;42.154;23.002;2023-05-02T07:54:30;97556.06;;;20.99;49.38
36630;BME280;36256;42.154;23.002;2023-05-02T07:56:56;97559.19;;;21.06;49.70
36630;BME280;36256;42.154;23.002;2023-05-02T07:59:29;97555.31;;;21.26;48.96
36630;BME280;36256;42.154;23.002;2023-05-02T08:01:56;97547.00;;;21.17;48.03
36630;BME280;36256;42.154;23.002;2023-05-02T08:04:23;97541.78;;;20.99;49.00
36630;BME280;36256;42.154;23.002;2023-05-02T08:06:50;97540.41;;;20.39;49.57
36630;BME280;36256;42.154;23.002;2023-05-02T08:09:17;97540.13;;;20.31;49.54
36630;BME280;36256;42.154;23.002;2023-05-02T08:11:43;97541.91;;;20.23;50.01
36630;BME280;36256;42.154;23.002;2023-05-02T08:14:10;97551.16;;;20.13;50.51
36630;BME280;36256;42.154;23.002;2023-05-02T08:16:37;97532.88;;;20.30;48.71
36630;BME280;36256;42.154;23.002;2023-05-02T08:19:04;97543.25;;;20.45;48.25
36630;BME280;36256;42.154;23.002;2023-05-02T08:21:31;97544.34;;;20.58;48.29
36630;BME280;36256;42.154;23.002;2023-05-02T08:23:58;97533.75;;;20.86;47.74
36630;BME280;36256;42.154;23.002;2023-05-02T08:26:25;97535.56;;;20.95;47.50
36630;BME280;36256;42.154;23.002;2023-05-02T08:28:55;97535.78;;;20.64;50.18
36630;BME280;36256;42.154;23.002;2023-05-02T08:31:22;97540.22;;;20.87;47.15
36630;BME280;36256;42.154;23.002;2023-05-02T08:33:48;97530.09;;;20.75;45.96
36630;BME280;36256;42.154;23.002;2023-05-02T08:36:16;97527.22;;;20.53;49.66
36630;BME280;36256;42.154;23.002;2023-05-02T08:38:44;97535.00;;;20.58;46.08
36630;BME280;36256;42.154;23.002;2023-05-02T08:41:14;97519.97;;;20.63;44.69
36630;BME280;36256;42.154;23.002;2023-05-02T08:43:43;97514.31;;;20.74;45.39
36630;BME280;36256;42.154;23.002;2023-05-02T08:46:11;97516.13;;;21.04;47.14
36630;BME280;36256;42.154;23.002;2023-05-02T08:48:44;97521.56;;;21.08;46.39
36630;BME280;36256;42.154;23.002;2023-05-02T08:51:14;97516.66;;;21.03;43.93
36630;BME280;36256;42.154;23.002;2023-05-02T08:53:42;97496.13;;;20.82;44.69
36630;BME280;36256;42.154;23.002;2023-05-02T08:56:11;97488.38;;;21.05;43.41
36630;BME280;36256;42.154;23.002;2023-05-02T08:58:39;97501.34;;;21.12;44.59
36630;BME280;36256;42.154;23.002;2023-05-02T09:01:14;97479.03;;;21.21;41.74
36630;BME280;36256;42.154;23.002;2023-05-02T09:03:45;97488.66;;;21.18;42.32
36630;BME280;36256;42.154;23.002;2023-05-02T09:06:16;97471.78;;;21.09;42.05
36630;BME280;36256;42.154;23.002;2023-05-02T09:08:45;97467.88;;;21.29;43.24
36630;BME280;36256;42.154;23.002;2023-05-02T09:11:15;97477.41;;;21.42;43.55
36630;BME280;36256;42.154;23.002;2023-05-02T09:13:46;97477.69;;;21.33;41.77
36630;BME280;36256;42.154;23.002;2023-05-02T09:16:20;97455.09;;;21.46;42.00
36630;BME280;36256;42.154;23.002;2023-05-02T09:18:52;97466.69;;;21.70;41.19
36630;BME280;36256;42.154;23.002;2023-05-02T09:21:24;97450.59;;;21.67;41.89
36630;BME280;36256;42.154;23.002;2023-05-02T09:23:53;97473.78;;;21.47;41.74
36630;BME280;36256;42.154;23.002;2023-05-02T09:26:23;97502.63;;;21.22;42.78
36630;BME280;36256;42.154;23.002;2023-05-02T09:28:54;97506.25;;;21.17;40.35
36630;BME280;36256;42.154;23.002;2023-05-02T09:31:23;97493.03;;;21.19;41.21
36630;BME280;36256;42.154;23.002;2023-05-02T09:34:15;97488.13;;;21.20;40.61
36630;BME280;36256;42.154;23.002;2023-05-02T09:36:43;97480.03;;;21.29;41.27
36630;BME280;36256;42.154;23.002;2023-05-02T09:39:12;97469.19;;;21.22;41.00
36630;BME280;36256;42.154;23.002;2023-05-02T09:41:42;97463.97;;;21.26;41.52
36630;BME280;36256;42.154;23.002;2023-05-02T09:44:12;97459.03;;;21.32;40.76
36630;BME280;36256;42.154;23.002;2023-05-02T09:46:44;97468.06;;;21.53;40.70
36630;BME280;36256;42.154;23.002;2023-05-02T09:49:11;97443.72;;;21.30;39.51
36630;BME280;36256;42.154;23.002;2023-05-02T09:51:37;97464.16;;;21.50;40.25
36630;BME280;36256;42.154;23.002;2023-05-02T09:54:04;97470.06;;;21.74;40.13
36630;BME280;36256;42.154;23.002;2023-05-02T09:56:31;97448.75;;;21.75;38.34
36630;BME280;36256;42.154;23.002;2023-05-02T09:59:14;97455.31;;;21.59;38.84
36630;BME280;36256;42.154;23.002;2023-05-02T10:01:41;97461.03;;;21.59;38.41
36630;BME280;36256;42.154;23.002;2023-05-02T10:04:12;97447.78;;;21.56;39.24
36630;BME280;36256;42.154;23.002;2023-05-02T10:06:44;97451.84;;;21.88;39.88
36630;BME280;36256;42.154;23.002;2023-05-02T10:09:14;97438.03;;;21.98;39.50
36630;BME280;36256;42.154;23.002;2023-05-02T10:11:50;97457.00;;;21.96;38.22
36630;BME280;36256;42.154;23.002;2023-05-02T10:14:19;97445.09;;;21.92;37.65
36630;BME280;36256;42.154;23.002;2023-05-02T10:16:59;97445.38;;;21.77;38.04
36630;BME280;36256;42.154;23.002;2023-05-02T10:19:29;97439.38;;;21.86;40.58
36630;BME280;36256;42.154;23.002;2023-05-02T10:21:59;97445.88;;;21.92;38.56
36630;BME280;36256;42.154;23.002;2023-05-02T10:24:27;97439.38;;;21.92;39.21
36630;BME280;36256;42.154;23.002;2023-05-02T10:26:54;97427.56;;;22.12;38.33
36630;BME280;36256;42.154;23.002;2023-05-02T10:29:21;97434.25;;;22.25;36.92
36630;BME280;36256;42.154;23.002;2023-05-02T10:31:48;97422.50;;;22.34;36.23
36630;BME280;36256;42.154;23.002;2023-05-02T10:34:17;97423.25;;;22.35;35.73
36630;BME280;36256;42.154;23.002;2023-05-02T10:36:44;97419.25;;;22.49;36.72
36630;BME280;36256;42.154;23.002;2023-05-02T10:39:11;97450.78;;;22.38;37.34
36630;BME280;36256;42.154;23.002;2023-05-02T10:41:39;97450.97;;;22.51;37.95
36630;BME280;36256;42.154;23.002;2023-05-02T10:44:07;97439.69;;;22.64;36.27
36630;BME280;36256;42.154;23.002;2023-05-02T10:46:35;97456.19;;;22.47;35.20
36630;BME280;36256;42.154;23.002;2023-05-02T10:49:07;97445.06;;;22.38;35.30
36630;BME280;36256;42.154;23.002;2023-05-02T10:51:35;97445.72;;;22.55;36.65
36630;BME280;36256;42.154;23.002;2023-05-02T10:54:22;97427.00;;;22.54;35.58
36630;BME280;36256;42.154;23.002;2023-05-02T10:57:02;97442.13;;;22.49;37.91
36630;BME280;36256;42.154;23.002;2023-05-02T10:59:38;97432.69;;;22.65;37.36
36630;BME280;36256;42.154;23.002;2023-05-02T11:05:04;97423.38;;;22.59;37.44
36630;BME280;36256;42.154;23.002;2023-05-02T11:07:35;97422.94;;;22.44;37.53
36630;BME280;36256;42.154;23.002;2023-05-02T11:12:49;97422.69;;;22.77;37.66
36630;BME280;36256;42.154;23.002;2023-05-02T11:18:02;97399.00;;;22.47;36.57
36630;BME280;36256;42.154;23.002;2023-05-02T11:20:34;97397.91;;;22.50;37.48
36630;BME280;36256;42.154;23.002;2023-05-02T11:25:56;97394.69;;;22.70;37.82
36630;BME280;36256;42.154;23.002;2023-05-02T11:31:03;97382.06;;;22.84;36.23
36630;BME280;36256;42.154;23.002;2023-05-02T11:33:30;97399.13;;;22.95;35.55
36630;BME280;36256;42.154;23.002;2023-05-02T11:35:57;97391.56;;;22.98;37.76
36630;BME280;36256;42.154;23.002;2023-05-02T11:38:24;97378.44;;;23.08;35.89
36630;BME280;36256;42.154;23.002;2023-05-02T11:40:53;97377.31;;;23.16;36.62
36630;BME280;36256;42.154;23.002;2023-05-02T11:43:20;97367.88;;;22.97;35.92
36630;BME280;36256;42.154;23.002;2023-05-02T11:45:47;97370.66;;;23.03;37.46
36630;BME280;36256;42.154;23.002;2023-05-02T11:48:17;97378.13;;;23.11;36.09
36630;BME280;36256;42.154;23.002;2023-05-02T11:53:18;97361.78;;;23.06;36.13
36630;BME280;36256;42.154;23.002;2023-05-02T11:55:55;97348.09;;;22.99;36.33
36630;BME280;36256;42.154;23.002;2023-05-02T11:58:25;97348.66;;;22.92;36.61
36630;BME280;36256;42.154;23.002;2023-05-02T12:01:10;97342.38;;;22.99;36.43
36630;BME280;36256;42.154;23.002;2023-05-02T12:03:39;97341.69;;;22.88;36.14
36630;BME280;36256;42.154;23.002;2023-05-02T12:06:14;97340.22;;;23.05;36.18
36630;BME280;36256;42.154;23.002;2023-05-02T12:08:42;97336.22;;;23.14;38.49
36630;BME280;36256;42.154;23.002;2023-05-02T12:11:12;97324.09;;;23.02;35.58
36630;BME280;36256;42.154;23.002;2023-05-02T12:13:47;97327.53;;;23.19;36.76
36630;BME280;36256;42.154;23.002;2023-05-02T12:16:14;97302.41;;;23.12;36.37
36630;BME280;36256;42.154;23.002;2023-05-02T12:18:42;97327.38;;;23.12;35.49
36630;BME280;36256;42.154;23.002;2023-05-02T12:21:08;97317.47;;;23.13;35.58
36630;BME280;36256;42.154;23.002;2023-05-02T12:23:36;97309.44;;;23.11;36.15
36630;BME280;36256;42.154;23.002;2023-05-02T12:26:35;97324.28;;;23.10;36.45
36630;BME280;36256;42.154;23.002;2023-05-02T12:29:03;97310.25;;;23.06;38.23
36630;BME280;36256;42.154;23.002;2023-05-02T12:31:32;97304.50;;;23.12;36.74
36630;BME280;36256;42.154;23.002;2023-05-02T12:33:59;97285.31;;;23.25;36.33
36630;BME280;36256;42.154;23.002;2023-05-02T12:36:27;97300.44;;;23.45;36.52
36630;BME280;36256;42.154;23.002;2023-05-02T12:38:56;97300.22;;;23.42;36.16
36630;BME280;36256;42.154;23.002;2023-05-02T12:41:38;97305.72;;;23.40;37.28
36630;BME280;36256;42.154;23.002;2023-05-02T12:44:09;97299.50;;;23.36;36.57
36630;BME280;36256;42.154;23.002;2023-05-02T12:46:35;97297.66;;;23.39;36.90
36630;BME280;36256;42.154;23.002;2023-05-02T12:49:04;97290.78;;;23.48;36.05
36630;BME280;36256;42.154;23.002;2023-05-02T12:51:31;97286.59;;;23.49;38.46
36630;BME280;36256;42.154;23.002;2023-05-02T12:53:59;97287.69;;;23.21;35.82
36630;BME280;36256;42.154;23.002;2023-05-02T12:56:26;97264.59;;;23.38;37.27
36630;BME280;36256;42.154;23.002;2023-05-02T12:58:58;97278.22;;;23.51;37.10
36630;BME280;36256;42.154;23.002;2023-05-02T13:01:32;97284.44;;;23.55;36.31
36630;BME280;36256;42.154;23.002;2023-05-02T13:03:59;97277.63;;;23.58;38.88
36630;BME280;36256;42.154;23.002;2023-05-02T13:06:26;97284.03;;;23.64;38.22
36630;BME280;36256;42.154;23.002;2023-05-02T13:08:53;97274.44;;;23.42;36.49
36630;BME280;36256;42.154;23.002;2023-05-02T13:11:19;97274.94;;;23.22;36.66
36630;BME280;36256;42.154;23.002;2023-05-02T13:13:46;97277.44;;;23.31;35.84
36630;BME280;36256;42.154;23.002;2023-05-02T13:16:12;97272.97;;;23.36;36.69
36630;BME280;36256;42.154;23.002;2023-05-02T13:18:39;97278.88;;;23.19;38.55
36630;BME280;36256;42.154;23.002;2023-05-02T13:21:06;97289.75;;;23.02;38.09
36630;BME280;36256;42.154;23.002;2023-05-02T13:23:33;97281.25;;;22.97;38.15
36630;BME280;36256;42.154;23.002;2023-05-02T13:26:00;97291.56;;;23.05;39.61
36630;BME280;36256;42.154;23.002;2023-05-02T13:28:26;97293.59;;;23.10;37.67
36630;BME280;36256;42.154;23.002;2023-05-02T13:30:55;97270.13;;;23.12;38.83
36630;BME280;36256;42.154;23.002;2023-05-02T13:33:22;97276.03;;;23.19;38.94